Las Vegas, Nevada
Traffic Map
Current Weather Conditions
Las Vegas, Nevada
Few Clouds
Few Clouds
44°
Feels Like: 38°
Wind Chill: 38° Ceiling: Unl
Heat Index: 44° Visibility: 10mi
Dew Point: Wind: 13mph
Humidity: 22% Direction: 200° (SSW)
Pressure: 30.23in Gusts: 0mph
Raw Report DataKLAS 240856Z 20011KT 10SM FEW250 07/M14 A3023 RMK AO2 SLP232 T00671139 50002 $
Traffic Incident Summary
Active as of:
Severity:
Category:
InformationThere was an issue retrieving the traffic information for this location. Please try a different location or try again shortly.
Advertisements
Track Severe Weather on mobile